createdAt,value
2022-12-26T00:00:44.038Z,10.10
2022-12-26T00:03:11.667Z,10.10
2022-12-26T00:05:39.227Z,10.10
2022-12-26T00:08:08.186Z,10.10
2022-12-26T00:10:35.620Z,10.10
2022-12-26T00:13:39.160Z,10.10
2022-12-26T00:15:50.600Z,10.00
2022-12-26T00:18:18.196Z,10.00
2022-12-26T00:20:45.938Z,10.00
2022-12-26T00:23:13.700Z,10.10
2022-12-26T00:25:41.677Z,9.90
2022-12-26T00:28:09.156Z,9.80
2022-12-26T00:30:38.149Z,9.80
2022-12-26T00:33:05.617Z,9.90
2022-12-26T00:35:33.127Z,9.80
2022-12-26T00:38:00.559Z,9.80
2022-12-26T00:40:28.075Z,10.00
2022-12-26T00:42:55.507Z,9.90
2022-12-26T00:45:23.187Z,9.80
2022-12-26T00:47:50.567Z,9.80
2022-12-26T00:50:18.119Z,9.90
2022-12-26T00:52:45.519Z,9.90
2022-12-26T00:55:13.038Z,9.80
2022-12-26T00:57:40.858Z,9.70
2022-12-26T01:00:08.493Z,9.80
2022-12-26T01:02:39.558Z,9.80
2022-12-26T01:05:11.046Z,9.70
2022-12-26T01:08:21.626Z,9.70
2022-12-26T01:10:27.297Z,9.70
2022-12-26T01:12:54.861Z,9.70
2022-12-26T01:15:22.281Z,9.80
2022-12-26T01:17:49.767Z,9.70
2022-12-26T01:20:17.229Z,9.70
2022-12-26T01:22:44.778Z,9.90
2022-12-26T01:25:12.608Z,9.90
2022-12-26T01:27:40.055Z,10.00
2022-12-26T01:30:07.888Z,10.00
2022-12-26T01:32:35.354Z,9.80
2022-12-26T01:35:02.871Z,9.70
2022-12-26T01:37:30.400Z,9.70
2022-12-26T01:39:57.906Z,9.80
2022-12-26T01:42:26.081Z,9.90
2022-12-26T01:44:53.577Z,10.00
2022-12-26T01:47:22.541Z,9.90
2022-12-26T01:49:52.113Z,9.80
2022-12-26T01:52:25.741Z,9.70
2022-12-26T01:54:55.107Z,9.60
2022-12-26T01:57:24.892Z,9.70
2022-12-26T01:59:52.801Z,9.90
2022-12-26T02:02:21.343Z,9.90
2022-12-26T02:05:09.451Z,9.90
2022-12-26T02:07:38.620Z,9.80
2022-12-26T02:10:11.449Z,9.70
2022-12-26T02:12:39.556Z,9.80
2022-12-26T02:15:09.466Z,9.80
2022-12-26T02:17:37.469Z,9.70
2022-12-26T02:20:18.456Z,9.70
2022-12-26T02:22:45.956Z,9.90
2022-12-26T02:25:31.739Z,10.00
2022-12-26T02:28:11.380Z,9.80
2022-12-26T02:30:45.057Z,9.70
2022-12-26T02:33:18.655Z,9.70
2022-12-26T02:35:52.203Z,9.70
2022-12-26T02:38:22.803Z,9.70
2022-12-26T02:40:55.451Z,9.70
2022-12-26T02:43:26.011Z,9.80
2022-12-26T02:46:31.047Z,9.80
2022-12-26T02:49:10.860Z,9.70
2022-12-26T02:52:10.028Z,9.60
2022-12-26T02:54:56.063Z,9.60
2022-12-26T02:57:43.867Z,9.70
2022-12-26T03:00:37.446Z,10.00
2022-12-26T03:03:45.038Z,9.90
2022-12-26T03:06:33.591Z,9.90
2022-12-26T03:09:22.489Z,9.80
2022-12-26T03:12:11.066Z,9.70
2022-12-26T03:14:42.430Z,9.60
2022-12-26T03:17:20.339Z,9.60
2022-12-26T03:20:02.677Z,9.80
2022-12-26T03:22:37.258Z,9.90
2022-12-26T03:25:25.310Z,9.90
2022-12-26T03:27:53.449Z,9.80
2022-12-26T03:30:39.741Z,9.80
2022-12-26T03:33:27.683Z,9.90
2022-12-26T03:35:55.254Z,9.90
2022-12-26T03:38:26.106Z,9.90
2022-12-26T03:41:14.146Z,10.00
2022-12-26T03:44:12.388Z,10.00
2022-12-26T03:47:22.618Z,9.90
2022-12-26T03:50:12.451Z,9.80
2022-12-26T03:53:11.455Z,9.90
2022-12-26T03:56:16.394Z,9.80
2022-12-26T03:59:31.979Z,9.80
2022-12-26T04:02:21.139Z,9.70
2022-12-26T04:05:08.401Z,9.70
2022-12-26T04:07:58.331Z,9.80
2022-12-26T04:10:49.434Z,9.90
2022-12-26T04:13:43.579Z,9.90
2022-12-26T04:16:42.352Z,9.80
2022-12-26T04:19:24.680Z,9.80
2022-12-26T04:22:53.870Z,9.70
2022-12-26T04:25:49.965Z,9.70
2022-12-26T04:28:40.729Z,9.60
2022-12-26T04:31:36.110Z,9.70
2022-12-26T04:34:26.624Z,9.80
2022-12-26T04:37:16.134Z,9.90
2022-12-26T04:40:04.289Z,9.80
2022-12-26T04:42:51.040Z,9.70
2022-12-26T04:45:19.148Z,9.80
2022-12-26T04:48:25.309Z,9.80
2022-12-26T04:50:53.358Z,9.70
2022-12-26T04:53:22.138Z,9.70
2022-12-26T04:55:49.648Z,9.70
2022-12-26T04:58:17.934Z,9.80
2022-12-26T05:00:45.620Z,9.70
2022-12-26T05:03:32.497Z,9.60
2022-12-26T05:06:18.577Z,9.50
2022-12-26T05:09:05.210Z,9.60
2022-12-26T05:11:33.965Z,9.70
2022-12-26T05:14:01.750Z,9.70
2022-12-26T05:16:47.962Z,9.50
2022-12-26T05:19:35.365Z,9.50
2022-12-26T05:22:23.424Z,9.50
2022-12-26T05:25:09.945Z,9.40
2022-12-26T05:27:57.807Z,9.50
2022-12-26T05:30:25.384Z,9.60
2022-12-26T05:33:11.437Z,9.50
2022-12-26T05:35:39.372Z,9.50
2022-12-26T05:38:07.338Z,9.60
2022-12-26T05:40:35.917Z,9.60
2022-12-26T05:43:03.381Z,9.70
2022-12-26T05:45:30.909Z,9.60
2022-12-26T05:48:01.948Z,9.60
2022-12-26T05:50:29.461Z,9.60
2022-12-26T05:52:58.159Z,9.60
2022-12-26T05:55:25.981Z,9.60
2022-12-26T05:57:53.526Z,9.60
2022-12-26T06:00:21.200Z,9.70
2022-12-26T06:02:49.347Z,9.70
2022-12-26T06:05:17.188Z,9.60
2022-12-26T06:07:44.796Z,9.70
2022-12-26T06:10:12.308Z,9.60
2022-12-26T06:12:39.974Z,9.70
2022-12-26T06:15:07.730Z,9.60
2022-12-26T06:17:35.223Z,9.60
2022-12-26T06:20:02.652Z,9.50
2022-12-26T06:22:30.215Z,9.60
2022-12-26T06:24:57.765Z,9.60
2022-12-26T06:27:25.272Z,9.50
2022-12-26T06:29:52.725Z,9.60
2022-12-26T06:32:20.258Z,9.70
2022-12-26T06:34:47.965Z,9.70
2022-12-26T06:37:15.514Z,9.70
2022-12-26T06:39:43.050Z,9.70
2022-12-26T06:42:10.438Z,9.60
2022-12-26T06:44:38.746Z,9.70
2022-12-26T06:47:06.383Z,9.80
2022-12-26T06:49:33.904Z,9.70
2022-12-26T06:52:01.440Z,9.60
2022-12-26T06:54:28.952Z,9.70
2022-12-26T06:56:56.429Z,9.70
2022-12-26T06:59:23.981Z,9.60
2022-12-26T07:01:51.673Z,9.60
2022-12-26T07:04:19.419Z,9.50
2022-12-26T07:06:46.920Z,9.50
2022-12-26T07:09:17.140Z,9.50
2022-12-26T07:11:46.195Z,9.40
2022-12-26T07:14:13.859Z,9.40
2022-12-26T07:16:43.552Z,9.50
2022-12-26T07:19:11.879Z,9.50
2022-12-26T07:21:41.062Z,9.60
2022-12-26T07:24:22.020Z,9.60
2022-12-26T07:26:49.734Z,9.50
2022-12-26T07:29:17.414Z,9.60
2022-12-26T07:31:45.004Z,9.60
2022-12-26T07:34:12.799Z,9.60
2022-12-26T07:36:40.698Z,9.70
2022-12-26T07:39:08.366Z,9.60
2022-12-26T07:41:54.264Z,9.60
2022-12-26T07:44:21.873Z,9.80
2022-12-26T07:46:49.232Z,9.80
2022-12-26T07:49:16.754Z,9.90
2022-12-26T07:51:44.275Z,10.00
2022-12-26T07:54:12.088Z,9.70
2022-12-26T07:56:40.688Z,9.60
2022-12-26T07:59:12.022Z,9.60
2022-12-26T08:01:39.963Z,9.60
2022-12-26T08:04:07.841Z,9.60
2022-12-26T08:06:35.311Z,9.70
2022-12-26T08:09:02.867Z,9.70
2022-12-26T08:11:32.120Z,9.80
2022-12-26T08:13:59.813Z,9.70
2022-12-26T08:16:29.031Z,9.70
2022-12-26T08:18:56.493Z,9.80
2022-12-26T08:21:24.230Z,9.70
2022-12-26T08:23:51.878Z,9.70
2022-12-26T08:26:22.950Z,9.70
2022-12-26T08:28:51.377Z,9.60
2022-12-26T08:31:20.087Z,9.80
2022-12-26T08:33:48.034Z,9.90
2022-12-26T08:36:19.384Z,10.00
2022-12-26T08:38:46.961Z,10.00
2022-12-26T08:41:14.685Z,9.90
2022-12-26T08:46:29.680Z,9.90
2022-12-26T08:48:57.267Z,9.90
2022-12-26T08:51:25.145Z,9.80
2022-12-26T08:53:54.426Z,9.80
2022-12-26T08:56:23.432Z,9.70
2022-12-26T08:58:51.421Z,9.80
2022-12-26T09:01:21.812Z,9.90
2022-12-26T09:03:52.484Z,9.90
2022-12-26T09:06:20.048Z,10.00
2022-12-26T09:08:47.662Z,9.90
2022-12-26T09:11:28.971Z,9.90
2022-12-26T09:13:57.487Z,9.90
2022-12-26T09:16:26.880Z,9.90
2022-12-26T09:19:01.487Z,9.90
2022-12-26T09:21:29.558Z,10.10
2022-12-26T09:24:01.061Z,10.10
2022-12-26T09:26:29.163Z,10.10
2022-12-26T09:28:56.636Z,10.10
2022-12-26T09:31:25.826Z,10.20
2022-12-26T09:33:56.047Z,10.20
2022-12-26T09:36:25.550Z,10.30
2022-12-26T09:38:53.427Z,10.10
2022-12-26T09:41:27.065Z,10.10
2022-12-26T09:44:04.475Z,10.10
2022-12-26T09:46:34.984Z,10.10
2022-12-26T09:49:14.819Z,10.00
2022-12-26T09:51:45.193Z,10.10
2022-12-26T09:54:18.971Z,10.30
2022-12-26T09:57:03.420Z,10.10
2022-12-26T09:59:45.314Z,10.20
2022-12-26T10:02:17.961Z,10.30
2022-12-26T10:04:45.586Z,10.40
2022-12-26T10:07:25.393Z,10.20
2022-12-26T10:10:00.094Z,10.20
2022-12-26T10:12:43.002Z,10.40
2022-12-26T10:15:22.697Z,10.50
2022-12-26T10:17:56.401Z,10.50
2022-12-26T10:20:36.067Z,10.60
2022-12-26T10:23:09.246Z,10.50
2022-12-26T10:25:36.693Z,10.50
2022-12-26T10:35:42.948Z,10.40
2022-12-26T10:38:27.488Z,10.60
2022-12-26T10:52:01.066Z,10.40
2022-12-26T10:54:29.713Z,10.70
2022-12-26T11:01:25.892Z,10.50
2022-12-26T11:03:59.921Z,10.40
2022-12-26T11:06:30.992Z,10.50
2022-12-26T11:08:59.492Z,10.50
2022-12-26T11:11:51.649Z,10.50
2022-12-26T11:15:19.170Z,10.60
2022-12-26T11:19:05.154Z,10.70
2022-12-26T11:22:13.791Z,10.50
2022-12-26T11:25:34.932Z,10.50
2022-12-26T11:28:39.470Z,10.60
2022-12-26T11:31:48.844Z,10.60
2022-12-26T11:38:44.413Z,10.60
2022-12-26T11:42:23.779Z,10.80
2022-12-26T11:45:17.036Z,10.70
2022-12-26T11:47:56.045Z,10.70
2022-12-26T11:58:35.042Z,10.70
2022-12-26T12:08:20.657Z,10.50
2022-12-26T12:11:32.384Z,10.50
2022-12-26T12:14:29.807Z,10.70
2022-12-26T12:17:15.186Z,10.60
2022-12-26T12:23:21.496Z,10.80
2022-12-26T12:26:07.066Z,10.80
2022-12-26T12:28:56.769Z,10.90
2022-12-26T12:35:24.878Z,10.70
2022-12-26T12:38:11.697Z,10.60
2022-12-26T12:41:07.666Z,10.70
2022-12-26T12:46:51.653Z,11.00
2022-12-26T12:49:47.895Z,10.70
2022-12-26T12:52:42.686Z,10.80
2022-12-26T12:55:32.473Z,10.70
2022-12-26T13:01:51.279Z,10.70
2022-12-26T13:05:03.735Z,10.60
2022-12-26T13:08:19.108Z,10.70
2022-12-26T13:14:43.853Z,10.80
2022-12-26T13:17:55.063Z,10.70
2022-12-26T13:20:25.895Z,10.80
2022-12-26T13:23:37.888Z,10.80
2022-12-26T13:26:36.995Z,10.90
2022-12-26T13:29:17.363Z,10.90
2022-12-26T13:34:47.476Z,10.80
2022-12-26T13:37:36.120Z,10.70
2022-12-26T13:40:16.191Z,10.70
2022-12-26T13:46:39.881Z,10.70
2022-12-26T13:49:36.638Z,10.70
2022-12-26T13:52:19.741Z,10.70
2022-12-26T13:54:47.911Z,10.70
2022-12-26T13:58:06.861Z,10.70
2022-12-26T14:01:06.817Z,10.70
2022-12-26T14:03:35.051Z,10.80
2022-12-26T14:06:21.034Z,11.00
2022-12-26T14:09:54.495Z,10.80
2022-12-26T14:13:01.603Z,10.90
2022-12-26T14:19:14.311Z,10.90
2022-12-26T14:22:37.063Z,11.00
2022-12-26T14:25:50.988Z,11.00
2022-12-26T14:28:46.851Z,11.00
2022-12-26T14:34:54.475Z,10.80
2022-12-26T14:41:14.618Z,10.80
2022-12-26T14:44:13.537Z,10.70
2022-12-26T14:46:46.877Z,10.60
2022-12-26T14:49:21.089Z,10.50
2022-12-26T14:52:40.757Z,10.50
2022-12-26T14:55:33.169Z,10.50
2022-12-26T14:58:19.176Z,10.50
2022-12-26T15:01:23.609Z,10.60
2022-12-26T15:04:19.387Z,10.50
2022-12-26T15:07:06.437Z,10.60
2022-12-26T15:10:05.716Z,10.50
2022-12-26T15:12:58.374Z,10.50
2022-12-26T15:18:35.256Z,10.50
2022-12-26T15:21:42.827Z,10.50
2022-12-26T15:28:04.166Z,10.50
2022-12-26T15:31:06.827Z,10.70
2022-12-26T15:33:37.276Z,10.70
2022-12-26T15:37:12.509Z,10.60
2022-12-26T15:54:29.930Z,10.30
2022-12-26T15:57:45.088Z,10.60
2022-12-26T16:00:53.587Z,10.80
2022-12-26T16:03:52.519Z,10.60
2022-12-26T16:06:45.930Z,10.50
2022-12-26T16:09:58.087Z,10.50
2022-12-26T16:16:04.047Z,10.30
2022-12-26T16:18:33.575Z,10.20
2022-12-26T16:21:29.855Z,10.20
2022-12-26T16:24:03.594Z,10.20
2022-12-26T16:26:36.417Z,10.30
2022-12-26T16:29:11.244Z,10.20
2022-12-26T16:31:42.598Z,10.30
2022-12-26T16:34:20.763Z,10.20
2022-12-26T16:36:50.459Z,10.20
2022-12-26T16:42:18.958Z,10.10
2022-12-26T16:44:50.533Z,10.00
2022-12-26T16:47:45.373Z,9.90
2022-12-26T16:50:17.976Z,10.00
2022-12-26T16:52:48.869Z,9.90
2022-12-26T16:58:34.202Z,9.90
2022-12-26T17:01:09.414Z,10.00
2022-12-26T17:03:41.091Z,10.00
2022-12-26T17:09:06.073Z,10.40
2022-12-26T17:11:35.476Z,10.20
2022-12-26T17:14:04.616Z,10.10
2022-12-26T17:16:33.402Z,10.00
2022-12-26T17:19:15.824Z,10.20
2022-12-26T17:22:03.612Z,10.20
2022-12-26T17:24:33.901Z,10.20
2022-12-26T17:33:58.084Z,10.20
2022-12-26T17:39:25.041Z,10.10
2022-12-26T17:42:01.772Z,10.20
2022-12-26T17:44:33.985Z,10.20
2022-12-26T17:47:25.364Z,10.20
2022-12-26T17:52:44.714Z,10.10
2022-12-26T17:55:37.963Z,10.10
2022-12-26T17:58:26.118Z,10.10
2022-12-26T18:01:06.783Z,10.20
2022-12-26T18:03:36.340Z,10.40
2022-12-26T18:06:23.661Z,10.40
2022-12-26T18:09:00.818Z,10.30
2022-12-26T18:18:43.845Z,10.00
2022-12-26T18:21:24.260Z,10.00
2022-12-26T18:23:55.630Z,10.10
2022-12-26T18:26:26.553Z,10.20
2022-12-26T18:28:55.164Z,10.10
2022-12-26T18:31:23.231Z,10.40
2022-12-26T18:33:51.068Z,11.00
2022-12-26T18:36:25.296Z,11.40
2022-12-26T18:39:20.739Z,11.60
2022-12-26T18:41:49.156Z,11.30
2022-12-26T18:47:13.817Z,10.60
2022-12-26T18:52:28.566Z,10.40
2022-12-26T18:54:56.550Z,10.50
2022-12-26T18:57:24.616Z,10.30
2022-12-26T18:59:53.475Z,10.10
2022-12-26T19:02:24.449Z,10.20
2022-12-26T19:04:53.493Z,10.20
2022-12-26T19:07:21.415Z,10.00
2022-12-26T19:10:40.211Z,10.00
2022-12-26T19:13:14.310Z,9.90
2022-12-26T19:15:50.879Z,10.00
2022-12-26T19:18:30.906Z,10.00
2022-12-26T19:21:24.833Z,10.00
2022-12-26T19:24:26.999Z,9.90
2022-12-26T19:26:54.927Z,10.00
2022-12-26T19:29:41.524Z,9.90
2022-12-26T19:57:34.375Z,10.00
2022-12-26T20:00:11.830Z,10.00
2022-12-26T20:02:48.671Z,10.00
2022-12-26T20:09:03.490Z,9.80
2022-12-26T20:11:34.099Z,9.90
2022-12-26T20:14:18.414Z,10.00
2022-12-26T20:20:14.989Z,9.90
2022-12-26T20:23:37.293Z,9.90
2022-12-26T20:26:13.046Z,10.00
2022-12-26T20:32:38.013Z,10.00
2022-12-26T20:35:30.730Z,9.90
2022-12-26T20:38:01.749Z,10.00
2022-12-26T20:41:01.997Z,10.10
2022-12-26T20:43:54.933Z,10.20
2022-12-26T20:46:44.660Z,10.10
2022-12-26T20:49:46.981Z,10.00
2022-12-26T20:53:24.954Z,9.90
2022-12-26T21:00:02.398Z,9.80
2022-12-26T21:02:32.981Z,9.70
2022-12-26T21:08:04.457Z,9.70
2022-12-26T21:10:39.334Z,9.80
2022-12-26T21:16:26.368Z,9.90
2022-12-26T21:19:16.139Z,9.90
2022-12-26T21:21:47.759Z,9.90
2022-12-26T21:25:12.342Z,9.80
2022-12-26T21:30:34.623Z,9.70
2022-12-26T21:35:53.448Z,10.00
2022-12-26T21:38:23.220Z,10.10
2022-12-26T21:41:00.341Z,10.10
2022-12-26T21:47:02.049Z,10.10
2022-12-26T21:49:42.387Z,9.90
2022-12-26T21:52:13.402Z,9.90
2022-12-26T21:58:01.489Z,9.70
2022-12-26T22:00:29.583Z,9.70
2022-12-26T22:03:23.726Z,9.90
2022-12-26T22:09:09.633Z,9.60
2022-12-26T22:09:29.832Z,9.70
2022-12-26T22:11:56.559Z,9.70
2022-12-26T22:14:28.710Z,9.70
2022-12-26T22:17:07.416Z,9.50
2022-12-26T22:19:41.584Z,9.30
2022-12-26T22:22:09.618Z,9.40
2022-12-26T22:24:37.550Z,9.40
2022-12-26T22:27:17.523Z,9.30
2022-12-26T22:29:48.489Z,9.30
2022-12-26T22:32:18.286Z,9.50
2022-12-26T22:34:52.605Z,9.60
2022-12-26T22:37:30.238Z,9.50
2022-12-26T22:40:07.501Z,9.30
2022-12-26T22:42:41.575Z,9.40
2022-12-26T22:45:23.667Z,9.50
2022-12-26T22:47:51.747Z,9.40
2022-12-26T22:50:19.713Z,9.40
2022-12-26T22:52:50.834Z,9.30
2022-12-26T22:55:24.964Z,9.50
2022-12-26T22:57:54.990Z,9.60
2022-12-26T23:00:25.108Z,9.60
2022-12-26T23:06:13.628Z,9.70
2022-12-26T23:08:58.139Z,9.60
2022-12-26T23:11:33.951Z,9.50
2022-12-26T23:14:11.530Z,9.40
2022-12-26T23:16:45.172Z,9.30
2022-12-26T23:19:33.317Z,9.40
2022-12-26T23:22:07.448Z,9.60
2022-12-26T23:25:53.508Z,9.70
2022-12-26T23:28:51.373Z,9.60
2022-12-26T23:31:28.365Z,9.40
2022-12-26T23:33:59.921Z,9.50
2022-12-26T23:40:15.260Z,9.50
2022-12-26T23:43:07.341Z,9.50
2022-12-26T23:45:44.945Z,9.50
2022-12-26T23:48:41.597Z,9.50
2022-12-26T23:51:16.441Z,9.40
2022-12-26T23:53:51.811Z,9.30
2022-12-26T23:56:19.873Z,9.40
2022-12-26T23:58:48.437Z,9.40
